Time;durP1;ratioP1;P1;durP2;ratioP2;P2;SDS_P1;SDS_P2;PMS_P1;PMS_P2;Temp;Humidity;BMP_temperature;BMP_pressure;BME280_temperature;BME280_humidity;BME280_pressure;Samples;Min_cycle;Max_cycle;Signal;HPM_P1;HPM_P2
2023/03/24 00:00:20;;;;;;;3.00;1.30;;;;;17.80;99586.00;;;;5081868;28;20190;-74
2023/03/24 00:02:50;;;;;;;2.83;1.35;;;;;17.80;99581.00;;;;5085747;28;20198;-76
2023/03/24 00:05:20;;;;;;;4.40;1.55;;;;;17.80;99581.00;;;;5086964;28;20209;-75
2023/03/24 00:07:48;;;;;;;2.20;1.20;;;;;17.80;99575.00;;;;5085437;28;20193;-76
2023/03/24 00:10:17;;;;;;;3.08;1.20;;;;;17.80;99574.00;;;;5082442;28;20222;-75
2023/03/24 00:12:46;;;;;;;2.60;1.30;;;;;17.80;99568.00;;;;5085781;28;20664;-75
2023/03/24 00:15:17;;;;;;;3.08;1.15;;;;;17.80;99567.00;;;;5087048;28;20198;-75
2023/03/24 00:17:45;;;;;;;1.77;1.10;;;;;17.80;99557.00;;;;5084631;28;20207;-76
2023/03/24 00:20:16;;;;;;;3.65;1.17;;;;;17.80;99557.00;;;;5087775;28;20198;-75
2023/03/24 00:22:49;;;;;;;4.55;1.40;;;;;17.80;99546.00;;;;5085528;28;20916;-77
2023/03/24 00:25:18;;;;;;;3.53;0.80;;;;;17.80;99545.00;;;;5081303;28;20231;-76
2023/03/24 00:27:47;;;;;;;1.80;1.13;;;;;17.80;99536.00;;;;5078092;28;20198;-75
2023/03/24 00:30:17;;;;;;;3.58;1.40;;;;;17.80;99530.00;;;;5086407;28;20240;-77
2023/03/24 00:32:45;;;;;;;2.65;1.40;;;;;17.80;99524.00;;;;5085739;28;20202;-77
2023/03/24 00:35:16;;;;;;;3.33;1.50;;;;;17.80;99527.00;;;;5083553;28;20305;-76
2023/03/24 00:37:44;;;;;;;2.17;1.27;;;;;17.80;99528.00;;;;5086484;28;20654;-76
2023/03/24 00:40:15;;;;;;;2.38;1.17;;;;;17.80;99523.00;;;;5087225;28;20259;-76
2023/03/24 00:42:44;;;;;;;2.85;1.30;;;;;17.80;99517.00;;;;5068660;28;20199;-77
2023/03/24 00:45:13;;;;;;;2.20;1.30;;;;;17.80;99520.00;;;;5083511;28;20243;-76
2023/03/24 00:47:43;;;;;;;6.68;1.42;;;;;17.80;99512.00;;;;5083971;28;20194;-76
2023/03/24 00:50:16;;;;;;;2.22;1.10;;;;;17.80;99513.00;;;;5086309;28;20224;-77
2023/03/24 00:52:46;;;;;;;2.97;1.58;;;;;17.80;99508.00;;;;5075079;28;20187;-76
2023/03/24 00:55:14;;;;;;;2.30;1.33;;;;;17.80;99503.00;;;;5088335;28;20238;-77
2023/03/24 00:57:48;;;;;;;2.67;1.70;;;;;17.80;99493.00;;;;5073284;28;20198;-76
2023/03/24 01:00:19;;;;;;;2.40;1.38;;;;;17.80;99493.00;;;;5077161;28;20760;-77
2023/03/24 01:02:47;;;;;;;3.35;1.02;;;;;17.80;99490.00;;;;5082482;28;20280;-75
2023/03/24 01:05:16;;;;;;;2.40;1.40;;;;;17.80;99488.00;;;;5087914;28;20214;-76
2023/03/24 01:07:44;;;;;;;2.25;1.60;;;;;17.80;99479.00;;;;5092024;28;20199;-76
2023/03/24 01:10:14;;;;;;;3.05;1.25;;;;;17.80;99481.00;;;;5089721;28;20249;-76
2023/03/24 01:12:41;;;;;;;3.08;1.40;;;;;17.80;99478.00;;;;5088167;28;20205;-76
2023/03/24 01:15:13;;;;;;;2.22;1.50;;;;;17.80;99478.00;;;;5090313;28;20458;-76
2023/03/24 01:17:41;;;;;;;4.13;1.67;;;;;17.90;99467.00;;;;5090813;28;20636;-76
2023/03/24 01:20:11;;;;;;;2.42;1.65;;;;;17.90;99468.00;;;;5090818;28;20202;-76
2023/03/24 01:22:43;;;;;;;1.70;1.35;;;;;17.80;99473.00;;;;5091593;28;20609;-76
2023/03/24 01:25:15;;;;;;;1.55;1.15;;;;;17.80;99469.00;;;;5090198;28;20203;-77
2023/03/24 01:27:42;;;;;;;2.58;1.27;;;;;17.90;99461.00;;;;5091480;28;20206;-76
2023/03/24 01:30:13;;;;;;;3.42;1.80;;;;;17.90;99469.00;;;;5090366;28;20704;-76
2023/03/24 01:32:40;;;;;;;2.25;1.08;;;;;17.90;99460.00;;;;5090004;28;20205;-77
2023/03/24 01:35:08;;;;;;;1.70;1.30;;;;;17.90;99456.00;;;;5070144;28;20218;-77
2023/03/24 01:37:35;;;;;;;3.22;1.55;;;;;17.90;99446.00;;;;5078273;28;20198;-76
2023/03/24 01:40:08;;;;;;;2.15;1.38;;;;;17.90;99442.00;;;;5088057;28;20187;-77
2023/03/24 01:42:36;;;;;;;1.90;1.25;;;;;17.90;99445.00;;;;5089772;28;20583;-77
2023/03/24 01:45:43;;;;;;;3.42;1.17;;;;;17.80;99443.00;;;;5090407;28;20210;-76
2023/03/24 01:48:15;;;;;;;3.03;1.90;;;;;17.90;99438.00;;;;5078775;28;20648;-77
2023/03/24 01:50:45;;;;;;;2.03;1.35;;;;;17.90;99439.00;;;;5085916;28;20233;-76
2023/03/24 01:53:14;;;;;;;4.00;1.60;;;;;18.00;99433.00;;;;5089512;28;20209;-76
2023/03/24 01:55:45;;;;;;;4.10;1.48;;;;;18.00;99426.00;;;;5091437;28;20244;-77
2023/03/24 01:58:12;;;;;;;2.08;1.45;;;;;18.00;99430.00;;;;5090364;28;20256;-77
2023/03/24 02:00:40;;;;;;;3.40;1.60;;;;;18.00;99424.00;;;;5089328;28;20213;-76
2023/03/24 02:03:11;;;;;;;2.30;1.58;;;;;18.00;99422.00;;;;5090465;28;20778;-76
2023/03/24 02:05:40;;;;;;;1.77;1.10;;;;;18.00;99428.00;;;;5090877;28;20213;-76
2023/03/24 02:08:14;;;;;;;2.35;1.33;;;;;18.00;99421.00;;;;5079106;28;20318;-77
2023/03/24 02:10:44;;;;;;;2.63;1.50;;;;;18.00;99416.00;;;;5072928;28;20225;-77
2023/03/24 02:13:11;;;;;;;2.50;1.60;;;;;18.00;99410.00;;;;5089849;28;20551;-77
2023/03/24 02:15:47;;;;;;;2.55;1.63;;;;;18.00;99417.00;;;;5089312;28;20206;-77
2023/03/24 02:18:20;;;;;;;1.88;1.45;;;;;18.00;99409.00;;;;5087586;28;20198;-76
2023/03/24 02:21:21;;;;;;;2.60;1.48;;;;;17.90;99414.00;;;;5090395;28;20198;-77
2023/03/24 02:24:05;;;;;;;1.90;1.35;;;;;18.00;99419.00;;;;5029747;28;20204;-77
2023/03/24 02:26:58;;;;;;;1.95;1.20;;;;;18.00;99404.00;;;;5069619;28;20206;-77
2023/03/24 02:30:03;;;;;;;1.50;1.30;;;;;17.90;99409.00;;;;5083645;28;20241;-78
2023/03/24 02:32:55;;;;;;;2.22;1.50;;;;;18.00;99473.00;;;;5084622;28;20221;-76
2023/03/24 02:35:59;;;;;;;2.42;1.55;;;;;17.90;99485.00;;;;5086648;28;20595;-78
2023/03/24 02:39:12;;;;;;;4.38;1.67;;;;;17.80;99491.00;;;;5088881;28;20242;-77
2023/03/24 02:41:49;;;;;;;2.30;1.60;;;;;17.90;99495.00;;;;5059817;28;20652;-78
2023/03/24 02:44:24;;;;;;;1.50;1.05;;;;;17.90;99506.00;;;;5087590;28;20194;-78
2023/03/24 02:46:56;;;;;;;2.28;1.45;;;;;17.90;99507.00;;;;5087909;28;20201;-78
2023/03/24 02:49:33;;;;;;;1.58;0.70;;;;;17.80;99507.00;;;;5089665;28;20202;-78
2023/03/24 02:52:05;;;;;;;1.10;0.70;;;;;17.80;99501.00;;;;5089050;28;20218;-77
2023/03/24 02:54:40;;;;;;;2.60;1.08;;;;;17.80;99504.00;;;;5087292;28;20234;-76
2023/03/24 02:57:15;;;;;;;1.15;0.70;;;;;17.80;99519.00;;;;5086407;28;20197;-78
2023/03/24 02:59:46;;;;;;;0.95;0.45;;;;;17.70;99521.00;;;;5072064;28;20643;-78
2023/03/24 03:02:17;;;;;;;1.00;0.50;;;;;17.70;99531.00;;;;5084075;28;20209;-77
2023/03/24 03:04:51;;;;;;;2.25;0.57;;;;;17.70;99536.00;;;;5089185;28;20206;-77
2023/03/24 03:07:22;;;;;;;1.83;0.57;;;;;17.70;99543.00;;;;5089672;28;20209;-78
2023/03/24 03:09:55;;;;;;;3.13;0.88;;;;;17.60;99548.00;;;;5088661;28;20217;-78
2023/03/24 03:12:27;;;;;;;2.05;0.60;;;;;17.60;99547.00;;;;5087513;28;20229;-76
2023/03/24 03:14:58;;;;;;;3.35;0.80;;;;;17.60;99553.00;;;;5086343;28;20202;-78
2023/03/24 03:17:29;;;;;;;2.00;0.43;;;;;17.50;99554.00;;;;5088222;28;20205;-78
2023/03/24 03:20:01;;;;;;;1.92;0.75;;;;;17.50;99566.00;;;;5087565;28;20416;-78
2023/03/24 03:22:35;;;;;;;2.72;0.32;;;;;17.40;99588.00;;;;5088133;28;20209;-78
2023/03/24 03:25:04;;;;;;;0.90;0.47;;;;;17.40;99589.00;;;;5088807;28;20195;-78
2023/03/24 03:27:37;;;;;;;3.10;0.70;;;;;17.40;99578.00;;;;5088844;28;20197;-77
2023/03/24 03:30:11;;;;;;;1.27;0.57;;;;;17.40;99587.00;;;;5087048;28;20279;-77
2023/03/24 03:32:43;;;;;;;1.20;0.38;;;;;17.30;99583.00;;;;5079280;28;20222;-77
2023/03/24 03:35:16;;;;;;;2.42;0.50;;;;;17.30;99588.00;;;;5082501;28;20218;-77
2023/03/24 03:37:52;;;;;;;4.88;0.70;;;;;17.20;99591.00;;;;5088510;28;20198;-77
2023/03/24 03:40:23;;;;;;;1.25;0.32;;;;;17.20;99603.00;;;;5086599;28;20206;-77
2023/03/24 03:42:52;;;;;;;3.75;0.88;;;;;17.10;99607.00;;;;5086359;28;20202;-77
2023/03/24 03:45:19;;;;;;;6.72;1.00;;;;;17.10;99624.00;;;;5088327;28;20203;-77
2023/03/24 03:47:46;;;;;;;5.15;0.90;;;;;17.00;99629.00;;;;5088502;28;20695;-76
2023/03/24 03:50:14;;;;;;;3.08;1.00;;;;;17.00;99629.00;;;;5074836;28;20206;-77
2023/03/24 03:52:43;;;;;;;4.03;1.13;;;;;16.90;99631.00;;;;5086298;28;20389;-77
2023/03/24 03:55:11;;;;;;;2.30;0.60;;;;;16.80;99630.00;;;;5087726;28;20252;-76
2023/03/24 03:57:39;;;;;;;2.83;0.70;;;;;16.80;99639.00;;;;5087383;28;20652;-76
2023/03/24 04:00:14;;;;;;;5.55;0.98;;;;;16.70;99648.00;;;;5087124;28;20205;-76
2023/03/24 04:03:04;;;;;;;3.45;1.13;;;;;16.60;99646.00;;;;5070202;28;20206;-76
2023/03/24 04:05:35;;;;;;;1.73;0.52;;;;;16.60;99656.00;;;;5081199;28;20209;-76
2023/03/24 04:08:15;;;;;;;2.42;0.52;;;;;16.50;99650.00;;;;5087703;28;20297;-76
2023/03/24 04:11:16;;;;;;;2.42;0.88;;;;;16.40;99654.00;;;;5086181;28;20198;-76
2023/03/24 04:13:59;;;;;;;3.33;0.65;;;;;16.40;99657.00;;;;5057440;28;20197;-76
2023/03/24 04:16:38;;;;;;;3.53;1.50;;;;;16.30;99649.00;;;;5088104;28;20668;-76
2023/03/24 04:19:24;;;;;;;3.35;1.02;;;;;16.30;99661.00;;;;5087732;28;20198;-76
2023/03/24 04:22:04;;;;;;;2.67;0.65;;;;;16.30;99672.00;;;;5086757;28;20280;-76
2023/03/24 04:24:43;;;;;;;2.28;1.17;;;;;16.30;99673.00;;;;5072310;28;20199;-76
2023/03/24 04:27:20;;;;;;;6.22;1.40;;;;;16.30;99673.00;;;;5083518;28;20549;-76
2023/03/24 04:29:57;;;;;;;4.05;0.98;;;;;16.20;99678.00;;;;5088356;28;20316;-76
2023/03/24 04:32:31;;;;;;;4.03;1.20;;;;;16.20;99693.00;;;;5086750;28;20230;-76
2023/03/24 04:35:02;;;;;;;5.85;1.58;;;;;16.20;99692.00;;;;5087411;28;20259;-76
2023/03/24 04:37:36;;;;;;;3.35;0.85;;;;;16.20;99691.00;;;;5087043;28;20684;-75
2023/03/24 04:40:08;;;;;;;5.28;0.95;;;;;16.20;99688.00;;;;5081815;28;20198;-75
2023/03/24 04:42:39;;;;;;;4.82;1.63;;;;;16.20;99692.00;;;;5088783;28;20459;-76
2023/03/24 04:45:08;;;;;;;4.75;0.90;;;;;16.20;99701.00;;;;5091395;28;20198;-75
2023/03/24 04:47:42;;;;;;;5.22;1.40;;;;;16.10;99701.00;;;;5091367;28;20205;-75
2023/03/24 04:50:11;;;;;;;5.57;1.05;;;;;16.20;99701.00;;;;5091448;28;20198;-76
2023/03/24 04:52:39;;;;;;;5.22;0.82;;;;;16.20;99713.00;;;;5090533;28;20576;-76
2023/03/24 04:55:31;;;;;;;7.13;1.08;;;;;16.00;99710.00;;;;5091402;28;20190;-76
2023/03/24 04:57:58;;;;;;;5.72;1.00;;;;;16.10;99721.00;;;;5085518;28;20206;-75
2023/03/24 05:00:26;;;;;;;3.95;0.90;;;;;16.10;99716.00;;;;5091209;28;20730;-76
2023/03/24 05:02:55;;;;;;;5.95;1.38;;;;;16.00;99720.00;;;;5088459;28;20244;-76
2023/03/24 05:05:22;;;;;;;5.68;1.00;;;;;16.00;99722.00;;;;5088085;28;20198;-76
2023/03/24 05:07:49;;;;;;;10.05;1.40;;;;;16.00;99736.00;;;;5088131;28;20198;-76
2023/03/24 05:10:18;;;;;;;8.90;1.48;;;;;16.00;99741.00;;;;5090880;28;20249;-76
2023/03/24 05:12:45;;;;;;;6.53;0.93;;;;;15.90;99744.00;;;;5091059;28;20226;-76
2023/03/24 05:15:13;;;;;;;9.18;1.25;;;;;15.90;99741.00;;;;5089031;28;20190;-76
2023/03/24 05:17:40;;;;;;;8.55;1.45;;;;;15.90;99739.00;;;;5090217;28;20206;-76
2023/03/24 05:20:10;;;;;;;7.90;1.17;;;;;15.80;99756.00;;;;5091005;28;20206;-76
2023/03/24 05:22:38;;;;;;;8.32;1.55;;;;;15.80;99757.00;;;;5090455;28;20248;-76
2023/03/24 05:25:06;;;;;;;7.43;1.55;;;;;15.80;99755.00;;;;5090053;28;20194;-76
2023/03/24 05:27:34;;;;;;;6.47;1.17;;;;;15.80;99756.00;;;;5089442;28;20992;-76
2023/03/24 05:30:01;;;;;;;6.82;1.48;;;;;15.80;99761.00;;;;5089265;28;20831;-75
2023/03/24 05:32:28;;;;;;;6.05;1.38;;;;;15.80;99770.00;;;;5082668;28;20221;-75
2023/03/24 05:34:56;;;;;;;5.40;1.08;;;;;15.80;99774.00;;;;5088062;28;20214;-76
2023/03/24 05:37:24;;;;;;;11.75;1.73;;;;;15.80;99766.00;;;;5089783;28;20190;-77
2023/03/24 05:39:52;;;;;;;6.35;1.02;;;;;15.80;99773.00;;;;5086527;28;20202;-76
2023/03/24 05:42:19;;;;;;;4.18;1.45;;;;;15.80;99775.00;;;;5086804;28;20570;-76
2023/03/24 05:44:47;;;;;;;9.05;1.27;;;;;15.80;99784.00;;;;5089907;28;20226;-76
2023/03/24 05:47:15;;;;;;;5.72;1.40;;;;;15.80;99780.00;;;;5087973;28;20201;-76
2023/03/24 05:49:42;;;;;;;6.65;1.25;;;;;15.80;99780.00;;;;5088507;28;20190;-76
2023/03/24 05:52:10;;;;;;;5.47;1.60;;;;;15.80;99787.00;;;;5087699;28;20233;-76
2023/03/24 05:54:39;;;;;;;10.27;1.58;;;;;15.80;99788.00;;;;5070959;28;20199;-76
2023/03/24 05:57:06;;;;;;;8.10;1.92;;;;;15.90;99791.00;;;;5088672;28;20194;-76
2023/03/24 05:59:34;;;;;;;7.80;1.23;;;;;15.90;99793.00;;;;5087512;28;20640;-76
2023/03/24 06:02:01;;;;;;;6.40;1.98;;;;;15.90;99791.00;;;;5087379;28;20668;-76
2023/03/24 06:04:29;;;;;;;8.98;1.60;;;;;15.90;99798.00;;;;5085900;28;20552;-77
2023/03/24 06:06:57;;;;;;;6.68;1.27;;;;;15.90;99803.00;;;;5086906;28;20671;-76
2023/03/24 06:09:27;;;;;;;6.70;1.50;;;;;16.00;99806.00;;;;5087618;28;20198;-76
2023/03/24 06:11:56;;;;;;;7.65;1.58;;;;;15.90;99819.00;;;;5086631;28;20207;-76
2023/03/24 06:14:23;;;;;;;7.40;1.55;;;;;16.00;99811.00;;;;5087795;28;20198;-76
2023/03/24 06:16:51;;;;;;;7.00;1.30;;;;;16.00;99806.00;;;;5089235;28;20209;-76
2023/03/24 06:19:21;;;;;;;6.25;1.35;;;;;16.00;99809.00;;;;5087941;28;20205;-76
2023/03/24 06:21:49;;;;;;;6.03;1.38;;;;;16.00;99830.00;;;;5086536;28;20194;-76
2023/03/24 06:24:16;;;;;;;4.40;1.33;;;;;16.00;99820.00;;;;5088462;28;20202;-76
2023/03/24 06:26:44;;;;;;;7.00;2.28;;;;;16.00;99811.00;;;;5088898;28;20206;-76
2023/03/24 06:29:13;;;;;;;4.32;1.33;;;;;16.00;99822.00;;;;5089450;28;20230;-76
2023/03/24 06:31:40;;;;;;;6.28;1.45;;;;;16.10;99823.00;;;;5088538;28;20683;-76
2023/03/24 06:34:07;;;;;;;6.68;1.33;;;;;16.10;99826.00;;;;5083216;28;20234;-77
2023/03/24 06:36:34;;;;;;;9.55;1.75;;;;;16.10;99827.00;;;;5085955;28;20216;-76
2023/03/24 06:39:02;;;;;;;11.68;1.95;;;;;16.10;99830.00;;;;5081124;28;20202;-77
2023/03/24 06:41:30;;;;;;;5.63;1.38;;;;;16.10;99826.00;;;;5069337;28;20207;-77
2023/03/24 06:43:57;;;;;;;7.05;1.30;;;;;16.10;99838.00;;;;5079648;28;20243;-76
2023/03/24 06:46:26;;;;;;;6.03;1.92;;;;;16.10;99836.00;;;;5088811;28;20198;-76
2023/03/24 06:48:53;;;;;;;3.85;1.13;;;;;16.20;99836.00;;;;5088151;28;20209;-76
2023/03/24 06:51:20;;;;;;;5.40;1.23;;;;;16.20;99848.00;;;;5088447;28;20209;-75
2023/03/24 06:53:48;;;;;;;5.90;1.40;;;;;16.20;99853.00;;;;5083794;28;20222;-75
2023/03/24 06:56:17;;;;;;;5.93;1.48;;;;;16.30;99849.00;;;;5085343;28;20198;-76
2023/03/24 06:58:44;;;;;;;3.53;1.83;;;;;16.30;99846.00;;;;5086246;28;20630;-76
2023/03/24 07:01:13;;;;;;;7.45;1.67;;;;;16.30;99856.00;;;;5085510;28;20198;-77
2023/03/24 07:03:42;;;;;;;5.85;1.40;;;;;16.30;99855.00;;;;5084108;28;20206;-75
2023/03/24 07:06:10;;;;;;;5.15;1.58;;;;;16.30;99859.00;;;;5085179;28;20660;-76
2023/03/24 07:08:38;;;;;;;4.55;1.58;;;;;16.30;99870.00;;;;5088544;28;20214;-76
2023/03/24 07:11:06;;;;;;;5.43;1.10;;;;;16.40;99874.00;;;;5086865;28;20213;-76
2023/03/24 07:13:33;;;;;;;3.67;1.55;;;;;16.40;99874.00;;;;5081450;28;20654;-76
2023/03/24 07:16:01;;;;;;;6.95;1.20;;;;;16.40;99870.00;;;;5068872;28;20226;-75
2023/03/24 07:18:28;;;;;;;7.00;1.38;;;;;16.50;99876.00;;;;5084268;28;20210;-76
2023/03/24 07:20:57;;;;;;;7.35;1.65;;;;;16.50;99884.00;;;;5087765;28;20194;-76
2023/03/24 07:23:27;;;;;;;6.40;1.80;;;;;16.50;99878.00;;;;5086498;28;20202;-76
2023/03/24 07:25:54;;;;;;;4.70;1.17;;;;;16.60;99880.00;;;;5088436;28;20194;-76
2023/03/24 07:28:21;;;;;;;8.43;1.67;;;;;16.60;99887.00;;;;5089095;28;20197;-76
2023/03/24 07:30:50;;;;;;;6.78;1.65;;;;;16.60;99883.00;;;;5079635;28;20207;-76
2023/03/24 07:33:18;;;;;;;8.73;1.52;;;;;16.70;99895.00;;;;5079850;28;20236;-76
2023/03/24 07:35:45;;;;;;;5.68;1.17;;;;;16.70;99901.00;;;;5086867;28;20753;-76
2023/03/24 07:38:14;;;;;;;4.45;1.50;;;;;16.70;99890.00;;;;5085390;28;20197;-76
2023/03/24 07:40:41;;;;;;;7.63;3.17;;;;;16.80;99899.00;;;;5088408;28;20248;-75
2023/03/24 07:43:09;;;;;;;5.20;1.02;;;;;16.80;99916.00;;;;5086882;28;20205;-75
2023/03/24 07:45:37;;;;;;;8.05;1.73;;;;;16.80;99902.00;;;;5086356;28;20240;-76
2023/03/24 07:48:04;;;;;;;10.27;1.30;;;;;16.90;99908.00;;;;5071913;28;20195;-75
2023/03/24 07:50:32;;;;;;;6.47;1.42;;;;;16.90;99902.00;;;;5087653;28;20209;-76
2023/03/24 07:53:00;;;;;;;4.22;1.20;;;;;17.00;99905.00;;;;5088669;28;20238;-75
2023/03/24 07:55:28;;;;;;;3.70;1.58;;;;;17.00;99919.00;;;;5085097;28;20759;-75
2023/03/24 07:57:56;;;;;;;5.82;1.35;;;;;17.10;99916.00;;;;5087121;28;20578;-75
2023/03/24 08:00:23;;;;;;;4.43;1.73;;;;;17.10;99917.00;;;;5087780;28;20193;-76
2023/03/24 08:02:52;;;;;;;3.28;1.10;;;;;17.20;99917.00;;;;5088323;28;20193;-75
2023/03/24 08:05:20;;;;;;;7.05;1.40;;;;;17.30;99921.00;;;;5078752;28;20203;-75
2023/03/24 08:07:52;;;;;;;4.65;1.25;;;;;17.30;99912.00;;;;5088139;28;20213;-75
2023/03/24 08:10:21;;;;;;;10.35;2.13;;;;;17.40;99939.00;;;;5088557;28;20656;-75
2023/03/24 08:12:51;;;;;;;9.13;1.15;;;;;17.40;99922.00;;;;5088047;28;20222;-75
2023/03/24 08:15:18;;;;;;;5.68;1.80;;;;;17.50;99925.00;;;;5085321;28;20201;-75
2023/03/24 08:17:47;;;;;;;6.03;1.30;;;;;17.50;99936.00;;;;5088251;28;20213;-75
2023/03/24 08:20:14;;;;;;;6.18;1.30;;;;;17.60;99925.00;;;;5087456;28;20205;-75
2023/03/24 08:22:42;;;;;;;11.18;1.83;;;;;17.60;99915.00;;;;5071905;28;20203;-75
2023/03/24 08:25:11;;;;;;;6.65;1.52;;;;;17.60;99927.00;;;;5084737;28;20833;-75
2023/03/24 08:27:42;;;;;;;11.75;2.00;;;;;17.60;99937.00;;;;5087037;28;20201;-76
2023/03/24 08:30:14;;;;;;;5.10;1.88;;;;;17.60;99928.00;;;;5087574;28;21066;-76
2023/03/24 08:32:45;;;;;;;7.60;1.52;;;;;17.60;99935.00;;;;5087665;28;20241;-76
2023/03/24 08:35:13;;;;;;;4.40;1.55;;;;;17.60;99935.00;;;;5086635;28;20226;-76
2023/03/24 08:37:42;;;;;;;11.43;1.70;;;;;17.60;99936.00;;;;5087628;28;20255;-76
2023/03/24 08:40:12;;;;;;;5.47;1.15;;;;;17.60;99950.00;;;;5067543;28;20199;-76
2023/03/24 08:42:40;;;;;;;7.05;1.65;;;;;17.60;99940.00;;;;5067846;28;20302;-74
2023/03/24 08:45:11;;;;;;;4.53;1.30;;;;;17.70;99947.00;;;;5077084;28;20297;-74
2023/03/24 08:47:38;;;;;;;8.30;1.70;;;;;17.70;99946.00;;;;5086480;28;20205;-76
2023/03/24 08:50:07;;;;;;;6.85;1.85;;;;;17.80;99952.00;;;;5087071;28;20204;-76
2023/03/24 08:52:36;;;;;;;11.50;1.80;;;;;17.80;99944.00;;;;5083926;28;20226;-74
2023/03/24 08:55:04;;;;;;;6.85;1.67;;;;;17.90;99957.00;;;;5081841;28;20286;-74
2023/03/24 08:57:31;;;;;;;5.55;1.30;;;;;18.00;99957.00;;;;5081623;28;20205;-74
2023/03/24 08:59:58;;;;;;;5.45;1.73;;;;;18.10;99951.00;;;;5087746;28;20205;-75
2023/03/24 09:02:27;;;;;;;4.05;1.15;;;;;18.20;99968.00;;;;5086725;28;20209;-74
2023/03/24 09:04:54;;;;;;;5.95;1.33;;;;;18.30;99967.00;;;;5085349;28;20217;-75
2023/03/24 09:07:22;;;;;;;6.15;1.42;;;;;18.40;99983.00;;;;5086875;28;20571;-75
2023/03/24 09:09:50;;;;;;;6.93;1.60;;;;;18.40;99985.00;;;;5086220;28;20205;-75
2023/03/24 09:12:17;;;;;;;6.22;1.50;;;;;18.50;99980.00;;;;5084619;28;20248;-75
2023/03/24 09:14:48;;;;;;;7.18;1.80;;;;;18.50;99983.00;;;;5082661;28;20229;-76
2023/03/24 09:17:16;;;;;;;2.55;1.15;;;;;18.50;99988.00;;;;5086923;28;20205;-76
2023/03/24 09:19:46;;;;;;;6.00;1.33;;;;;18.50;99997.00;;;;5083634;28;20198;-77
2023/03/24 09:22:13;;;;;;;6.53;1.38;;;;;18.50;100001.00;;;;5087088;28;20526;-76
2023/03/24 09:24:40;;;;;;;6.00;1.60;;;;;18.50;100000.00;;;;5083101;28;20191;-76
2023/03/24 09:27:08;;;;;;;5.47;1.67;;;;;18.40;100001.00;;;;5081179;28;20194;-76
2023/03/24 09:29:35;;;;;;;3.90;1.23;;;;;18.40;100009.00;;;;5081716;28;20230;-76
2023/03/24 09:32:02;;;;;;;5.78;2.00;;;;;18.40;100014.00;;;;5089180;28;20664;-76
2023/03/24 09:34:31;;;;;;;7.80;1.73;;;;;18.30;100013.00;;;;5085292;28;20230;-76
2023/03/24 09:37:00;;;;;;;5.22;1.58;;;;;18.30;100001.00;;;;5087701;28;20225;-76
2023/03/24 09:39:27;;;;;;;4.82;1.40;;;;;18.30;99993.00;;;;5088064;28;20238;-76
2023/03/24 09:41:55;;;;;;;8.27;1.83;;;;;18.20;99991.00;;;;5088764;28;20199;-76
2023/03/24 09:44:27;;;;;;;6.10;1.23;;;;;18.20;100003.00;;;;5085958;28;20565;-76
2023/03/24 09:47:01;;;;;;;4.35;1.27;;;;;18.20;100001.00;;;;5071939;28;20591;-75
2023/03/24 09:49:32;;;;;;;4.47;1.40;;;;;18.30;100005.00;;;;5083780;28;20191;-76
2023/03/24 09:52:05;;;;;;;3.75;1.35;;;;;18.30;99998.00;;;;5088741;28;20198;-76
2023/03/24 09:54:41;;;;;;;4.55;1.38;;;;;18.40;99999.00;;;;5090733;28;20225;-76
2023/03/24 09:57:16;;;;;;;6.45;1.20;;;;;18.50;100007.00;;;;5091340;28;20206;-76
2023/03/24 09:59:43;;;;;;;7.93;1.30;;;;;18.60;100014.00;;;;5091745;28;20200;-76
2023/03/24 10:02:13;;;;;;;5.07;1.40;;;;;18.70;100009.00;;;;5090736;28;20668;-76
2023/03/24 10:04:41;;;;;;;3.88;1.40;;;;;18.80;100020.00;;;;5080090;28;20206;-76
2023/03/24 10:07:18;;;;;;;6.55;1.20;;;;;18.80;100027.00;;;;5090979;28;20205;-76
2023/03/24 10:09:48;;;;;;;6.97;1.40;;;;;18.90;100020.00;;;;5084903;28;20198;-76
2023/03/24 10:12:30;;;;;;;3.83;1.15;;;;;19.00;100017.00;;;;5090304;28;20651;-75
2023/03/24 10:15:08;;;;;;;6.30;1.30;;;;;19.10;100021.00;;;;5085387;28;20344;-76
2023/03/24 10:17:43;;;;;;;5.55;1.60;;;;;19.20;100026.00;;;;5070911;28;20698;-76
2023/03/24 10:20:25;;;;;;;10.77;1.67;;;;;19.30;100010.00;;;;5079079;28;21348;-75
2023/03/24 10:23:01;;;;;;;4.30;1.27;;;;;19.50;100021.00;;;;5070895;28;20202;-75
2023/03/24 10:25:42;;;;;;;5.38;1.63;;;;;19.60;100001.00;;;;5078358;28;20259;-77
2023/03/24 10:28:18;;;;;;;6.25;1.40;;;;;19.70;100008.00;;;;5089196;28;20202;-76
2023/03/24 10:30:48;;;;;;;4.32;1.33;;;;;19.90;100008.00;;;;5089428;28;20276;-76
2023/03/24 10:33:15;;;;;;;6.25;1.50;;;;;20.00;100010.00;;;;5090302;28;20230;-76
2023/03/24 10:35:46;;;;;;;5.38;1.65;;;;;20.20;100016.00;;;;5089401;28;20572;-76
2023/03/24 10:38:19;;;;;;;4.43;1.45;;;;;20.20;100014.00;;;;5076589;28;20274;-76
2023/03/24 10:40:47;;;;;;;3.38;1.13;;;;;20.30;100010.00;;;;5082868;28;20214;-76
2023/03/24 10:43:16;;;;;;;3.05;0.93;;;;;20.40;100008.00;;;;5074744;28;20201;-76
2023/03/24 10:45:47;;;;;;;5.20;1.40;;;;;20.40;100003.00;;;;5089790;28;20198;-76
2023/03/24 10:48:32;;;;;;;9.82;1.90;;;;;20.50;100002.00;;;;5085642;28;20264;-75
2023/03/24 10:51:00;;;;;;;7.60;1.50;;;;;20.50;100014.00;;;;5069037;28;20202;-76
2023/03/24 10:53:29;;;;;;;7.43;1.58;;;;;20.50;100013.00;;;;5083693;28;20225;-75
2023/03/24 10:55:56;;;;;;;4.93;1.40;;;;;20.40;100027.00;;;;5069417;28;20203;-75
2023/03/24 10:58:30;;;;;;;4.32;1.45;;;;;20.30;100033.00;;;;5075590;28;20198;-76
2023/03/24 11:00:59;;;;;;;5.03;1.25;;;;;20.30;100042.00;;;;5089515;28;20201;-76
2023/03/24 11:03:30;;;;;;;4.65;1.48;;;;;20.10;100044.00;;;;5089753;28;20201;-76
2023/03/24 11:06:02;;;;;;;3.97;1.20;;;;;20.00;100047.00;;;;5088659;28;20198;-76
2023/03/24 11:08:36;;;;;;;3.85;1.02;;;;;19.90;100050.00;;;;5086212;28;20277;-76
2023/03/24 11:11:15;;;;;;;4.22;1.10;;;;;19.70;100049.00;;;;5085438;28;20199;-76
2023/03/24 11:13:53;;;;;;;2.72;1.10;;;;;19.80;100043.00;;;;5080947;28;20263;-76
2023/03/24 11:16:28;;;;;;;3.03;0.77;;;;;19.60;100042.00;;;;5083830;28;20198;-76
2023/03/24 11:18:57;;;;;;;2.28;0.90;;;;;19.60;100032.00;;;;5083924;28;20202;-75
2023/03/24 11:21:26;;;;;;;6.20;1.05;;;;;19.50;100040.00;;;;5087899;28;20317;-76
2023/03/24 11:23:58;;;;;;;6.20;1.00;;;;;19.40;100043.00;;;;5086989;28;20209;-76
2023/03/24 11:26:32;;;;;;;2.35;1.00;;;;;19.40;100049.00;;;;5084182;28;20202;-75
2023/03/24 11:29:03;;;;;;;4.57;1.17;;;;;19.50;100047.00;;;;5075676;28;20230;-76
2023/03/24 11:31:32;;;;;;;2.50;0.70;;;;;19.50;100042.00;;;;5084343;28;20743;-75
2023/03/24 11:34:02;;;;;;;2.85;0.90;;;;;19.50;100051.00;;;;5087016;28;20573;-75
2023/03/24 11:36:46;;;;;;;5.82;0.85;;;;;19.40;100038.00;;;;5083761;28;20747;-75
2023/03/24 11:39:21;;;;;;;5.25;1.20;;;;;19.40;100048.00;;;;5085432;28;20235;-75
2023/03/24 11:42:04;;;;;;;4.80;1.17;;;;;19.30;100048.00;;;;5081453;28;20190;-75
2023/03/24 11:44:42;;;;;;;4.63;1.63;;;;;19.40;100049.00;;;;5078405;28;20213;-75
2023/03/24 11:47:13;;;;;;;2.42;1.00;;;;;19.40;100056.00;;;;5080372;28;20244;-75
2023/03/24 11:49:46;;;;;;;3.05;0.88;;;;;19.50;100065.00;;;;5088644;28;20275;-75
2023/03/24 11:52:21;;;;;;;3.58;0.75;;;;;19.50;100054.00;;;;5085810;28;20191;-75
2023/03/24 11:54:50;;;;;;;3.60;0.90;;;;;19.60;100057.00;;;;5087800;28;20613;-75
2023/03/24 11:57:28;;;;;;;2.38;1.20;;;;;19.60;100052.00;;;;5088698;28;20205;-76
2023/03/24 12:00:00;;;;;;;2.83;0.75;;;;;19.60;100050.00;;;;5084081;28;20193;-75
2023/03/24 12:02:45;;;;;;;5.05;0.98;;;;;19.60;100052.00;;;;5085041;28;20202;-75
2023/03/24 12:05:23;;;;;;;1.52;0.60;;;;;19.60;100041.00;;;;5087978;28;20202;-75
2023/03/24 12:08:24;;;;;;;3.05;0.80;;;;;19.60;100046.00;;;;5086810;28;20194;-75
2023/03/24 12:11:11;;;;;;;3.72;0.70;;;;;19.60;100047.00;;;;5062720;28;20308;-75
2023/03/24 12:13:41;;;;;;;4.05;1.02;;;;;19.60;100039.00;;;;5088523;28;20191;-75
2023/03/24 12:16:28;;;;;;;3.85;0.90;;;;;19.50;100038.00;;;;5085435;28;20224;-75
2023/03/24 12:19:28;;;;;;;1.80;0.80;;;;;19.40;100047.00;;;;5083229;28;20735;-75
2023/03/24 12:22:06;;;;;;;4.07;1.20;;;;;19.50;100035.00;;;;5066080;28;20198;-75
2023/03/24 12:24:50;;;;;;;3.38;0.95;;;;;19.50;100041.00;;;;5066131;28;20202;-74
2023/03/24 12:27:28;;;;;;;3.90;0.90;;;;;19.50;100040.00;;;;5072246;28;20198;-75
2023/03/24 12:30:01;;;;;;;3.58;1.17;;;;;19.50;100044.00;;;;5084464;28;20228;-75
2023/03/24 12:32:42;;;;;;;4.38;1.15;;;;;19.60;100031.00;;;;5077018;28;20226;-75
2023/03/24 12:35:30;;;;;;;2.65;0.70;;;;;19.60;100023.00;;;;5080949;28;20233;-75
2023/03/24 12:38:16;;;;;;;4.97;0.98;;;;;19.70;100030.00;;;;5081546;28;20565;-75